Time;durP1;ratioP1;P1;durP2;ratioP2;P2;SDS_P1;SDS_P2;PMS_P1;PMS_P2;Temp;Humidity;BMP_temperature;BMP_pressure;BME280_temperature;BME280_humidity;BME280_pressure;Samples;Min_cycle;Max_cycle;Signal;HPM_P1;HPM_P2
2023/12/09 00:02:03;;;;;;;18.52;9.25;;;;;;;3.67;95.85;100303.16;5003159;28;20146;-81
2023/12/09 00:04:30;;;;;;;18.90;8.85;;;;;;;3.63;95.87;100305.69;4984034;28;20041;-82
2023/12/09 00:06:57;;;;;;;17.73;8.95;;;;;;;3.66;95.99;100307.44;4985181;28;20056;-82
2023/12/09 00:09:24;;;;;;;18.65;8.88;;;;;;;3.69;96.05;100312.66;4997307;28;20086;-82
2023/12/09 00:11:51;;;;;;;16.05;8.43;;;;;;;3.66;96.02;100317.81;4993295;28;20121;-82
2023/12/09 00:14:18;;;;;;;16.98;8.70;;;;;;;3.63;96.08;100312.59;4996184;28;20042;-80
2023/12/09 00:16:45;;;;;;;19.77;9.43;;;;;;;3.69;96.03;100312.66;4986591;28;20130;-81
2023/12/09 00:19:13;;;;;;;16.70;8.70;;;;;;;3.67;96.05;100324.78;4993572;28;20153;-80
2023/12/09 00:21:40;;;;;;;17.48;8.43;;;;;;;3.65;96.12;100324.75;4982662;28;20070;-82
2023/12/09 00:24:07;;;;;;;17.75;9.05;;;;;;;3.68;96.18;100321.31;4991227;28;20050;-81
2023/12/09 00:26:34;;;;;;;18.05;8.30;;;;;;;3.69;96.43;100328.22;4981767;28;20113;-81
2023/12/09 00:29:01;;;;;;;16.33;8.60;;;;;;;3.65;96.28;100326.50;4982520;28;20053;-81
2023/12/09 00:31:28;;;;;;;17.73;9.10;;;;;;;3.68;96.34;100328.22;4996207;28;20150;-81
2023/12/09 00:33:54;;;;;;;17.38;8.20;;;;;;;3.67;96.30;100332.56;5003369;28;20050;-81
2023/12/09 00:36:22;;;;;;;17.40;8.32;;;;;;;3.67;96.39;100339.47;4992481;28;20061;-82
2023/12/09 00:38:49;;;;;;;19.60;8.60;;;;;;;3.71;96.31;100336.94;4971269;28;20058;-81
2023/12/09 00:41:16;;;;;;;19.95;8.90;;;;;;;3.69;96.28;100332.56;4990453;28;20188;-81
2023/12/09 00:43:43;;;;;;;16.52;8.45;;;;;;;3.68;96.60;100334.31;5015836;28;20065;-82
2023/12/09 00:46:10;;;;;;;18.00;8.35;;;;;;;3.71;96.46;100336.94;4981178;28;20058;-82
2023/12/09 00:48:37;;;;;;;19.52;8.85;;;;;;;3.75;96.51;100343.91;4989733;28;20055;-80
2023/12/09 00:51:05;;;;;;;16.45;7.97;;;;;;;3.75;96.48;100343.91;4991702;28;20088;-81
2023/12/09 00:53:32;;;;;;;17.77;8.13;;;;;;;3.75;96.41;100343.91;4999476;28;20072;-81
2023/12/09 00:55:59;;;;;;;18.60;9.10;;;;;;;3.72;96.54;100336.09;4991456;28;20054;-81
2023/12/09 00:58:26;;;;;;;16.30;7.97;;;;;;;3.75;96.61;100341.31;5000440;28;20046;-81
2023/12/09 01:00:53;;;;;;;14.48;8.35;;;;;;;3.75;96.53;100349.09;4993577;28;20107;-82
2023/12/09 01:03:19;;;;;;;16.23;7.97;;;;;;;3.76;96.46;100344.75;5000787;28;20046;-81
2023/12/09 01:05:46;;;;;;;18.83;8.85;;;;;;;3.73;96.66;100340.41;4996642;28;20055;-81
2023/12/09 01:08:13;;;;;;;18.95;8.40;;;;;;;3.74;96.55;100336.97;4989726;28;20050;-82
2023/12/09 01:10:40;;;;;;;16.85;7.55;;;;;;;3.77;96.57;100337.00;5000127;28;20137;-81
2023/12/09 01:13:08;;;;;;;14.93;7.40;;;;;;;3.82;96.68;100335.34;4997333;28;20132;-80
2023/12/09 01:15:35;;;;;;;15.65;7.30;;;;;;;3.82;96.42;100340.53;5002991;28;20117;-82
2023/12/09 01:18:02;;;;;;;12.85;7.15;;;;;;;3.83;96.64;100341.38;4984613;28;20101;-82
2023/12/09 01:20:29;;;;;;;15.48;7.50;;;;;;;3.84;96.64;100343.13;4989970;28;20050;-82
2023/12/09 01:22:56;;;;;;;21.63;8.77;;;;;;;3.83;96.64;100347.44;4998496;28;20486;-82
2023/12/09 01:25:23;;;;;;;13.90;7.25;;;;;;;3.85;96.66;100354.38;4993283;28;20046;-81
2023/12/09 01:27:52;;;;;;;16.58;8.45;;;;;;;3.83;96.58;100351.75;4986378;28;20133;-79
2023/12/09 01:30:19;;;;;;;16.35;8.15;;;;;;;3.86;96.68;100350.94;5005291;28;20049;-82
2023/12/09 01:32:46;;;;;;;14.02;7.82;;;;;;;3.90;96.77;100365.69;5003026;28;20048;-81
2023/12/09 01:35:13;;;;;;;16.27;8.40;;;;;;;3.91;96.55;100364.81;4992465;28;20108;-80
2023/12/09 01:37:41;;;;;;;19.00;7.88;;;;;;;3.94;96.69;100383.03;4998156;28;20137;-82
2023/12/09 01:40:08;;;;;;;13.00;7.45;;;;;;;3.96;96.83;100373.53;4988939;28;20049;-82
2023/12/09 01:42:35;;;;;;;18.58;7.72;;;;;;;3.95;96.70;100371.78;4990878;28;20066;-82
2023/12/09 01:45:03;;;;;;;15.32;7.88;;;;;;;3.96;96.56;100376.16;4992308;28;20053;-81
2023/12/09 01:47:30;;;;;;;15.98;7.53;;;;;;;3.97;96.52;100368.38;5005964;28;20074;-82
2023/12/09 01:49:57;;;;;;;14.20;7.68;;;;;;;3.99;96.46;100364.03;4982209;28;20046;-79
2023/12/09 01:52:24;;;;;;;17.10;7.55;;;;;;;4.00;96.56;100360.59;4996557;28;20060;-81
2023/12/09 01:54:52;;;;;;;15.27;7.35;;;;;;;3.98;96.55;100354.53;4981798;28;20073;-80
2023/12/09 01:57:19;;;;;;;18.00;8.45;;;;;;;4.05;96.57;100371.03;4996805;28;20077;-81
2023/12/09 01:59:46;;;;;;;14.15;7.15;;;;;;;4.00;96.54;100370.13;4988745;28;20053;-81
2023/12/09 02:02:13;;;;;;;16.60;8.30;;;;;;;3.99;96.43;100358.00;4993460;28;20142;-81
2023/12/09 02:04:40;;;;;;;16.92;7.57;;;;;;;4.02;96.57;100359.75;4998157;28;20046;-80
2023/12/09 02:07:07;;;;;;;15.98;8.38;;;;;;;4.07;96.57;100360.66;4991426;28;20046;-79
2023/12/09 02:09:37;;;;;;;17.13;7.97;;;;;;;4.08;96.81;100363.28;5000836;28;20137;-82
2023/12/09 02:12:26;;;;;;;17.02;7.97;;;;;;;4.06;96.52;100364.13;4995244;28;20050;-82
2023/12/09 02:14:59;;;;;;;14.57;7.78;;;;;;;4.14;96.39;100358.16;4994876;28;20037;-81
2023/12/09 02:17:33;;;;;;;18.50;7.80;;;;;;;4.17;96.37;100360.78;4996388;28;20044;-82
2023/12/09 02:20:00;;;;;;;16.40;8.18;;;;;;;4.14;96.41;100363.34;4983801;28;20128;-82
2023/12/09 02:22:28;;;;;;;18.60;8.73;;;;;;;4.12;96.58;100356.41;4992184;28;20137;-82
2023/12/09 02:24:56;;;;;;;17.17;7.22;;;;;;;4.05;96.14;100350.25;4991513;28;20054;-82
2023/12/09 02:27:32;;;;;;;19.35;7.80;;;;;;;4.03;96.42;100338.09;5017145;28;20046;-81
2023/12/09 02:30:22;;;;;;;15.98;7.68;;;;;;;3.99;96.50;100339.81;5022206;28;20073;-83
2023/12/09 02:32:51;;;;;;;18.02;8.02;;;;;;;4.03;96.56;100333.81;4999905;28;20064;-81
2023/12/09 02:35:19;;;;;;;15.27;7.10;;;;;;;4.01;96.49;100330.31;5005861;28;20553;-81
2023/12/09 02:37:46;;;;;;;15.15;8.07;;;;;;;4.02;96.62;100321.66;4979546;28;20050;-81
2023/12/09 02:40:14;;;;;;;15.75;7.50;;;;;;;4.05;96.56;100313.91;5010960;28;20121;-82
2023/12/09 02:42:42;;;;;;;14.15;7.45;;;;;;;4.02;96.65;100310.41;4991668;28;20085;-81
2023/12/09 02:45:10;;;;;;;17.88;7.78;;;;;;;4.00;96.57;100310.41;4991316;28;20218;-81
2023/12/09 02:47:38;;;;;;;14.88;7.55;;;;;;;3.98;96.58;100297.41;5012676;28;20521;-82
2023/12/09 02:50:05;;;;;;;14.20;7.22;;;;;;;3.97;96.64;100290.47;4989496;28;20049;-81
2023/12/09 02:52:32;;;;;;;15.93;7.18;;;;;;;3.94;96.69;100290.44;4999404;28;20050;-82
2023/12/09 02:54:59;;;;;;;15.93;7.10;;;;;;;3.97;96.92;100292.22;4983745;28;20096;-81
2023/12/09 02:57:25;;;;;;;13.50;7.35;;;;;;;4.00;96.72;100292.22;4978303;28;20050;-82
2023/12/09 02:59:52;;;;;;;13.63;7.18;;;;;;;3.99;96.71;100285.28;4984731;28;20049;-81
2023/12/09 03:02:19;;;;;;;14.77;6.97;;;;;;;3.98;96.87;100288.72;5002088;28;20045;-82
2023/12/09 03:04:46;;;;;;;16.85;7.40;;;;;;;4.02;96.73;100285.31;4980304;28;20053;-82
2023/12/09 03:07:12;;;;;;;16.50;7.75;;;;;;;4.04;96.75;100278.41;4988145;28;20045;-81
2023/12/09 03:09:39;;;;;;;14.93;7.70;;;;;;;4.05;96.75;100285.34;5001806;28;20053;-81
2023/12/09 03:12:06;;;;;;;19.58;8.18;;;;;;;4.02;96.77;100285.31;4992074;28;20068;-82
2023/12/09 03:14:33;;;;;;;14.90;7.80;;;;;;;3.97;96.72;100287.00;4991807;28;20045;-80
2023/12/09 03:16:59;;;;;;;13.90;7.53;;;;;;;3.98;96.63;100283.53;5027325;28;20061;-81
2023/12/09 03:19:26;;;;;;;13.13;6.70;;;;;;;3.99;96.68;100286.16;5000676;28;20054;-82
2023/12/09 03:21:53;;;;;;;17.08;7.07;;;;;;;4.08;96.58;100280.16;4987718;28;20079;-81
2023/12/09 03:24:20;;;;;;;13.82;6.75;;;;;;;4.09;96.50;100275.84;5004858;28;20049;-81
2023/12/09 03:26:50;;;;;;;12.77;6.63;;;;;;;4.12;96.48;100275.88;4999454;28;20073;-81
2023/12/09 03:29:18;;;;;;;14.60;6.60;;;;;;;4.10;96.41;100273.28;4997151;28;20050;-81
2023/12/09 03:31:45;;;;;;;12.57;5.85;;;;;;;4.11;96.38;100280.22;4987169;28;20042;-81
2023/12/09 03:34:12;;;;;;;12.27;5.53;;;;;;;4.10;96.33;100273.28;4992154;28;20057;-80
2023/12/09 03:36:40;;;;;;;11.25;5.82;;;;;;;4.13;96.24;100268.09;4995919;28;20188;-79
2023/12/09 03:39:07;;;;;;;10.65;5.30;;;;;;;4.16;96.16;100268.13;4993774;28;20045;-81
2023/12/09 03:41:34;;;;;;;13.85;5.15;;;;;;;4.24;96.05;100267.31;5010031;28;20046;-80
2023/12/09 03:44:01;;;;;;;8.93;5.05;;;;;;;4.25;95.96;100274.25;4989565;28;20241;-81
2023/12/09 03:46:28;;;;;;;12.45;4.95;;;;;;;4.24;95.81;100260.38;4990810;28;20157;-82
2023/12/09 03:48:55;;;;;;;11.27;4.90;;;;;;;4.17;95.62;100267.28;4990434;28;20045;-81
2023/12/09 03:51:22;;;;;;;13.52;4.97;;;;;;;4.25;95.61;100264.72;4996569;28;20101;-81
2023/12/09 03:53:49;;;;;;;9.65;4.70;;;;;;;4.24;95.64;100270.78;4995032;28;20124;-80
2023/12/09 03:56:17;;;;;;;13.32;4.47;;;;;;;4.25;95.54;100266.47;4997514;28;20061;-81
2023/12/09 03:58:44;;;;;;;9.73;4.80;;;;;;;4.26;95.41;100274.28;4998816;28;20052;-81
2023/12/09 04:01:10;;;;;;;12.27;4.88;;;;;;;4.24;95.33;100269.91;4994197;28;20088;-82
2023/12/09 04:03:37;;;;;;;17.23;4.63;;;;;;;4.22;95.26;100271.66;4991930;28;20100;-82
2023/12/09 04:06:05;;;;;;;11.25;4.93;;;;;;;4.19;95.02;100275.06;4992752;28;20054;-81
2023/12/09 04:08:32;;;;;;;10.05;4.80;;;;;;;4.22;94.93;100264.72;5000607;28;20060;-81
2023/12/09 04:10:59;;;;;;;10.93;4.63;;;;;;;4.18;94.84;100271.59;4993446;28;20121;-81
2023/12/09 04:13:27;;;;;;;13.73;4.47;;;;;;;4.17;95.14;100267.28;5000130;28;20054;-81
2023/12/09 04:15:54;;;;;;;8.25;4.45;;;;;;;4.18;94.86;100276.78;4991291;28;20105;-81
2023/12/09 04:18:20;;;;;;;10.40;3.88;;;;;;;4.21;94.95;100254.31;4986772;28;20054;-81
2023/12/09 04:20:47;;;;;;;10.40;3.67;;;;;;;4.18;94.90;100271.59;4981124;28;20046;-82
2023/12/09 04:23:15;;;;;;;11.57;4.28;;;;;;;4.21;94.97;100272.50;4985577;28;20088;-81
2023/12/09 04:25:42;;;;;;;11.48;4.32;;;;;;;4.20;94.86;100274.22;4994981;28;20058;-82
2023/12/09 04:28:08;;;;;;;12.13;4.32;;;;;;;4.20;94.67;100283.72;4989882;28;21149;-82
2023/12/09 04:30:35;;;;;;;8.70;4.00;;;;;;;4.18;94.91;100284.56;4996301;28;20056;-82
2023/12/09 04:33:02;;;;;;;11.52;4.18;;;;;;;4.15;95.07;100275.91;4990874;28;20049;-81
2023/12/09 04:35:29;;;;;;;11.43;4.30;;;;;;;4.13;94.97;100268.09;4999469;28;20195;-81
2023/12/09 04:37:56;;;;;;;10.55;4.40;;;;;;;4.12;95.20;100263.75;4993529;28;20046;-80
2023/12/09 04:40:23;;;;;;;6.38;3.92;;;;;;;4.05;95.19;100258.50;5002523;28;20046;-81
2023/12/09 04:42:49;;;;;;;8.65;4.07;;;;;;;4.07;95.31;100261.97;4991731;28;20054;-81
2023/12/09 04:45:16;;;;;;;8.85;3.83;;;;;;;4.08;95.22;100256.78;5003591;28;20050;-81
2023/12/09 04:47:43;;;;;;;10.68;3.75;;;;;;;4.12;95.37;100258.56;5000615;28;20057;-81
2023/12/09 04:50:10;;;;;;;9.70;4.03;;;;;;;4.21;95.17;100249.97;4989500;28;20064;-81
2023/12/09 04:52:37;;;;;;;7.15;3.80;;;;;;;4.23;95.44;100249.97;4983555;28;20046;-80
2023/12/09 04:55:05;;;;;;;9.00;4.32;;;;;;;4.32;95.25;100255.25;4977289;28;20444;-82
2023/12/09 04:57:31;;;;;;;11.75;4.97;;;;;;;4.33;95.24;100247.47;5003420;28;20045;-82
2023/12/09 05:00:03;;;;;;;9.75;4.22;;;;;;;4.33;95.32;100239.69;4995577;28;20053;-81
2023/12/09 05:02:30;;;;;;;14.32;4.65;;;;;;;4.34;95.32;100235.34;4993213;28;20052;-82
2023/12/09 05:04:56;;;;;;;14.48;4.97;;;;;;;4.37;95.51;100231.91;4981430;28;20050;-82
2023/12/09 05:07:26;;;;;;;11.45;4.80;;;;;;;4.35;95.41;100227.56;4989871;28;20046;-81
2023/12/09 05:09:53;;;;;;;13.88;5.60;;;;;;;4.37;95.30;100231.91;4982967;28;20042;-82
2023/12/09 05:12:20;;;;;;;17.73;6.22;;;;;;;4.36;95.45;100233.66;5003260;28;20054;-82
2023/12/09 05:14:47;;;;;;;14.13;5.32;;;;;;;4.37;95.12;100230.16;4987257;28;20050;-82
2023/12/09 05:17:14;;;;;;;15.50;6.03;;;;;;;4.38;95.53;100225.88;4993492;28;20048;-81
2023/12/09 05:19:41;;;;;;;15.93;6.97;;;;;;;4.39;95.60;100222.38;5005207;28;20050;-81
2023/12/09 05:22:11;;;;;;;12.43;6.32;;;;;;;4.40;95.55;100222.38;4995974;28;20057;-82
2023/12/09 05:24:38;;;;;;;12.35;6.63;;;;;;;4.42;95.67;100227.59;5003986;28;20046;-82
2023/12/09 05:27:05;;;;;;;14.45;6.05;;;;;;;4.39;95.63;100223.28;4982752;28;20049;-82
2023/12/09 05:29:32;;;;;;;13.40;6.65;;;;;;;4.37;95.59;100219.78;4995676;28;20042;-81
2023/12/09 05:31:59;;;;;;;14.00;6.60;;;;;;;4.38;95.75;100221.53;4995776;28;20045;-81
2023/12/09 05:34:26;;;;;;;17.13;7.70;;;;;;;4.36;95.64;100215.47;4995664;28;20051;-81
2023/12/09 05:36:53;;;;;;;11.10;6.55;;;;;;;4.37;95.68;100214.59;5004302;28;20056;-81
2023/12/09 05:39:20;;;;;;;18.15;7.53;;;;;;;4.32;95.57;100219.75;5004886;28;20346;-82
2023/12/09 05:41:47;;;;;;;15.48;7.72;;;;;;;4.34;95.64;100209.38;5001927;28;20045;-82
2023/12/09 05:44:13;;;;;;;14.57;7.32;;;;;;;4.31;95.69;100209.34;4985849;28;20046;-82
2023/12/09 05:46:40;;;;;;;16.90;7.47;;;;;;;4.32;95.88;100200.72;4998938;28;20609;-82
2023/12/09 05:49:07;;;;;;;15.20;6.95;;;;;;;4.27;95.98;100197.19;4980957;28;20054;-81
2023/12/09 05:51:34;;;;;;;17.13;7.40;;;;;;;4.21;95.84;100197.16;4989867;28;20045;-80
2023/12/09 05:54:01;;;;;;;15.88;7.47;;;;;;;4.22;95.83;100191.13;4985688;28;20136;-82
2023/12/09 05:56:28;;;;;;;15.45;8.18;;;;;;;4.16;95.90;100190.19;4991888;28;20301;-80
2023/12/09 05:58:55;;;;;;;12.88;6.93;;;;;;;4.20;96.26;100191.09;4990864;28;20049;-82
2023/12/09 06:01:22;;;;;;;16.27;7.55;;;;;;;4.13;95.87;100184.13;4995816;28;20049;-81
2023/12/09 06:03:49;;;;;;;15.57;7.40;;;;;;;4.15;96.27;100187.59;4999951;28;20084;-79
2023/12/09 06:06:16;;;;;;;14.65;7.93;;;;;;;4.16;96.11;100192.81;4997253;28;20078;-81
2023/12/09 06:08:43;;;;;;;15.35;7.40;;;;;;;4.15;96.02;100182.41;5002902;28;20405;-81
2023/12/09 06:11:10;;;;;;;19.08;7.90;;;;;;;4.13;96.03;100192.78;4996944;28;20060;-81
2023/12/09 06:13:37;;;;;;;14.10;7.45;;;;;;;4.16;96.17;100185.00;4998648;28;20046;-82
2023/12/09 06:16:04;;;;;;;20.23;7.85;;;;;;;4.11;96.10;100185.81;5001936;28;20092;-82
2023/12/09 06:18:30;;;;;;;16.27;7.60;;;;;;;3.99;95.99;100186.63;4990935;28;20045;-82
2023/12/09 06:20:57;;;;;;;14.93;7.68;;;;;;;3.98;96.09;100192.66;5012830;28;20057;-82
2023/12/09 06:23:24;;;;;;;15.38;7.65;;;;;;;3.96;96.28;100186.59;4990481;28;20058;-81
2023/12/09 06:25:51;;;;;;;17.52;7.40;;;;;;;3.95;95.96;100195.22;4985052;28;20047;-81
2023/12/09 06:28:18;;;;;;;18.27;8.50;;;;;;;4.00;96.03;100183.16;5000517;28;20049;-82
2023/12/09 06:30:44;;;;;;;16.73;8.43;;;;;;;4.04;96.34;100179.75;5016591;28;20052;-81
2023/12/09 06:33:11;;;;;;;19.27;8.18;;;;;;;4.02;96.19;100176.25;4988235;28;20059;-80
2023/12/09 06:35:38;;;;;;;17.73;7.32;;;;;;;4.06;96.05;100175.41;5003533;28;20042;-81
2023/12/09 06:38:05;;;;;;;21.73;8.60;;;;;;;4.04;96.06;100174.56;4986082;28;20042;-81
2023/12/09 06:40:31;;;;;;;19.42;8.32;;;;;;;4.04;96.28;100177.16;4991922;28;20057;-81
2023/12/09 06:42:58;;;;;;;14.00;7.10;;;;;;;4.02;96.29;100171.06;4993509;28;20038;-82
2023/12/09 06:45:25;;;;;;;15.48;7.65;;;;;;;3.99;96.38;100166.69;4980545;28;20139;-82
2023/12/09 06:47:53;;;;;;;19.70;8.40;;;;;;;4.01;96.23;100166.72;4990870;28;20061;-82
2023/12/09 06:50:21;;;;;;;16.67;7.97;;;;;;;3.99;96.64;100165.84;4996292;28;20050;-81
2023/12/09 06:52:48;;;;;;;16.20;7.95;;;;;;;3.96;96.20;100166.69;4991178;28;20069;-81
2023/12/09 06:55:15;;;;;;;17.45;7.88;;;;;;;3.96;96.22;100171.00;4980955;28;20060;-81
2023/12/09 06:57:42;;;;;;;16.08;7.75;;;;;;;3.96;96.21;100171.88;5001545;28;20052;-81
2023/12/09 07:00:09;;;;;;;16.52;7.65;;;;;;;3.94;96.27;100171.00;4994196;28;20053;-82
2023/12/09 07:02:36;;;;;;;20.88;8.38;;;;;;;3.92;96.17;100179.63;4999350;28;20061;-81
2023/12/09 07:05:22;;;;;;;17.58;7.75;;;;;;;3.94;96.35;100178.78;4998724;28;20132;-81
2023/12/09 07:07:50;;;;;;;15.63;7.93;;;;;;;3.90;96.16;100191.75;4978396;28;20058;-82
2023/12/09 07:10:18;;;;;;;15.48;7.75;;;;;;;3.86;96.23;100184.78;4997000;28;20047;-81
2023/12/09 07:12:44;;;;;;;15.52;8.05;;;;;;;3.85;96.34;100188.22;4997353;28;20052;-80
2023/12/09 07:15:15;;;;;;;15.15;7.70;;;;;;;3.87;96.21;100182.19;4981741;28;20049;-82
2023/12/09 07:17:42;;;;;;;16.88;8.25;;;;;;;3.83;96.46;100186.47;4991703;28;20095;-79
2023/12/09 07:20:10;;;;;;;16.38;7.75;;;;;;;3.82;96.41;100189.06;5005082;28;20111;-81
2023/12/09 07:22:37;;;;;;;12.43;6.68;;;;;;;3.84;96.24;100189.97;5015277;28;20045;-82
2023/12/09 07:25:04;;;;;;;14.10;7.50;;;;;;;3.88;96.25;100183.06;4993392;28;20044;-81
2023/12/09 07:27:31;;;;;;;17.67;7.93;;;;;;;3.87;96.18;100181.31;5006091;28;20054;-80
2023/12/09 07:30:00;;;;;;;13.65;6.50;;;;;;;3.87;96.08;100191.69;5000033;28;20425;-81
2023/12/09 07:32:27;;;;;;;12.85;6.22;;;;;;;3.83;96.15;100191.66;5002100;28;20045;-80
2023/12/09 07:34:55;;;;;;;15.95;7.40;;;;;;;3.91;96.03;100193.47;4993140;28;20053;-81
2023/12/09 07:37:23;;;;;;;14.60;6.88;;;;;;;3.91;96.08;100188.28;4997966;28;20138;-82
2023/12/09 07:39:50;;;;;;;16.00;7.57;;;;;;;3.84;95.94;100176.97;5018933;28;20057;-80
2023/12/09 07:42:17;;;;;;;14.55;6.85;;;;;;;3.87;96.08;100176.13;4999471;28;20065;-80
2023/12/09 07:44:44;;;;;;;15.50;7.32;;;;;;;3.88;95.83;100172.66;4997127;28;20080;-83
2023/12/09 07:47:11;;;;;;;16.85;6.60;;;;;;;3.86;95.84;100182.19;4993131;28;20068;-82
2023/12/09 07:49:37;;;;;;;14.80;7.25;;;;;;;3.84;96.10;100179.59;4973683;28;20062;-82
2023/12/09 07:52:05;;;;;;;16.63;6.97;;;;;;;3.88;95.77;100178.75;4986589;28;20073;-81
2023/12/09 07:54:32;;;;;;;13.98;6.25;;;;;;;3.95;95.60;100175.34;4995549;28;20046;-82
2023/12/09 07:56:59;;;;;;;16.45;6.70;;;;;;;3.97;95.83;100167.56;5010892;28;20049;-81
2023/12/09 07:59:25;;;;;;;16.10;6.47;;;;;;;3.93;95.48;100163.19;5007863;28;20046;-82
2023/12/09 08:01:52;;;;;;;11.77;6.20;;;;;;;3.87;95.78;100165.72;4991706;28;20054;-81
2023/12/09 08:04:19;;;;;;;13.07;6.13;;;;;;;3.81;95.64;100157.06;5019980;28;20045;-81
2023/12/09 08:06:45;;;;;;;11.80;6.13;;;;;;;3.73;95.60;100143.13;4988749;28;20049;-81
2023/12/09 08:09:12;;;;;;;12.95;6.57;;;;;;;3.79;95.64;100148.38;5007772;28;20045;-82
2023/12/09 08:11:39;;;;;;;18.88;7.70;;;;;;;3.78;95.63;100146.66;5006493;28;20560;-82
2023/12/09 08:14:06;;;;;;;17.52;8.07;;;;;;;3.81;95.79;100141.47;4961982;28;20060;-81
2023/12/09 08:16:36;;;;;;;14.82;6.95;;;;;;;3.78;95.59;100138.88;4995014;28;20101;-81
2023/12/09 08:19:03;;;;;;;14.18;7.22;;;;;;;3.82;95.63;100157.91;5003658;28;20056;-81
2023/12/09 08:21:35;;;;;;;13.68;6.70;;;;;;;3.87;95.57;100161.44;4998733;28;20050;-81
2023/12/09 08:24:02;;;;;;;14.82;6.20;;;;;;;3.90;95.60;100156.25;5008991;28;20050;-81
2023/12/09 08:26:29;;;;;;;14.27;6.70;;;;;;;3.95;95.52;100145.91;5018722;28;20105;-81
2023/12/09 08:28:56;;;;;;;14.32;6.63;;;;;;;3.95;95.48;100151.97;5021405;28;20049;-81
2023/12/09 08:31:23;;;;;;;11.57;6.32;;;;;;;3.98;95.65;100144.22;4991619;28;20042;-81
2023/12/09 08:33:49;;;;;;;13.90;6.15;;;;;;;4.02;95.51;100134.69;5002827;28;20054;-80
2023/12/09 08:36:17;;;;;;;15.07;6.60;;;;;;;4.07;95.48;100138.22;5018364;28;20129;-82
2023/12/09 08:38:44;;;;;;;13.30;5.93;;;;;;;4.11;95.43;100129.59;4991019;28;20061;-82
2023/12/09 08:41:11;;;;;;;14.00;7.00;;;;;;;4.14;95.49;100116.63;5002224;28;20103;-82
2023/12/09 08:43:38;;;;;;;19.25;7.85;;;;;;;4.17;95.30;100114.03;4992889;28;20138;-81
2023/12/09 08:46:05;;;;;;;15.07;7.50;;;;;;;4.21;95.44;100116.63;5004435;28;20132;-82
2023/12/09 08:48:32;;;;;;;15.25;7.18;;;;;;;4.25;95.55;100105.41;4990428;28;20080;-81
2023/12/09 08:50:59;;;;;;;14.15;6.70;;;;;;;4.30;95.44;100112.38;5019246;28;20076;-81
2023/12/09 08:53:25;;;;;;;20.00;7.55;;;;;;;4.37;95.46;100115.84;5015548;28;20050;-82
2023/12/09 08:55:52;;;;;;;16.75;6.82;;;;;;;4.38;95.54;100112.41;5000620;28;20050;-81
2023/12/09 08:58:19;;;;;;;14.35;7.18;;;;;;;4.35;95.67;100113.25;5027258;28;20050;-82
2023/12/09 09:00:46;;;;;;;15.93;7.22;;;;;;;4.37;95.73;100120.19;4993760;28;20050;-81
2023/12/09 09:03:18;;;;;;;15.43;6.25;;;;;;;4.35;95.70;100122.78;5007111;28;20042;-82
2023/12/09 09:05:45;;;;;;;13.15;6.40;;;;;;;4.38;95.71;100121.94;5007468;28;20057;-81
2023/12/09 09:08:12;;;;;;;15.38;6.18;;;;;;;4.40;95.74;100126.25;5000414;28;20046;-81
2023/12/09 09:10:38;;;;;;;17.65;7.22;;;;;;;4.39;95.86;100119.34;5001786;28;20068;-81
2023/12/09 09:13:05;;;;;;;16.48;7.18;;;;;;;4.47;95.81;100102.03;5005195;28;20041;-82
2023/12/09 09:15:32;;;;;;;17.25;6.85;;;;;;;4.44;95.93;100099.44;5012827;28;20113;-83
2023/12/09 09:17:59;;;;;;;14.75;6.43;;;;;;;4.48;95.94;100093.38;5020308;28;20142;-82
2023/12/09 09:20:26;;;;;;;17.58;7.07;;;;;;;4.46;95.90;100095.13;4986144;28;20050;-83
2023/12/09 09:22:53;;;;;;;16.38;6.82;;;;;;;4.53;95.92;100086.50;4992112;28;20050;-83
2023/12/09 09:25:20;;;;;;;15.30;7.40;;;;;;;4.53;95.97;100076.09;5000673;28;20107;-81
2023/12/09 09:27:47;;;;;;;15.52;6.72;;;;;;;4.58;96.05;100080.44;4993792;28;20066;-83
2023/12/09 09:30:19;;;;;;;18.02;5.85;;;;;;;4.54;95.96;100071.75;4991575;28;20045;-81
2023/12/09 09:32:47;;;;;;;14.07;6.15;;;;;;;4.56;96.02;100062.22;4998511;28;20049;-84
2023/12/09 09:35:14;;;;;;;17.63;6.35;;;;;;;4.59;95.89;100050.97;4998354;28;20053;-82
2023/12/09 09:37:40;;;;;;;14.98;6.75;;;;;;;4.58;95.80;100046.66;4999985;28;20061;-82
2023/12/09 09:40:07;;;;;;;17.00;6.88;;;;;;;4.62;95.78;100045.78;5000554;28;20041;-82
2023/12/09 09:42:41;;;;;;;17.30;6.60;;;;;;;4.65;95.90;100048.38;5001307;28;20049;-83
2023/12/09 09:45:22;;;;;;;20.63;7.07;;;;;;;4.72;95.61;100060.53;4982827;28;20073;-80
2023/12/09 09:47:55;;;;;;;16.77;6.63;;;;;;;4.68;95.49;100054.47;4986999;28;20088;-82
2023/12/09 09:50:25;;;;;;;16.55;6.65;;;;;;;4.71;95.37;100053.63;5003394;28;20046;-82
2023/12/09 09:52:53;;;;;;;15.30;6.72;;;;;;;4.82;95.36;100054.53;4998720;28;20046;-82
2023/12/09 09:55:23;;;;;;;13.32;6.53;;;;;;;4.80;95.18;100040.63;5008645;28;20046;-84
2023/12/09 09:57:52;;;;;;;14.50;6.53;;;;;;;4.76;94.81;100036.28;4984747;28;20050;-82
2023/12/09 10:00:21;;;;;;;14.40;6.32;;;;;;;4.80;94.75;100043.25;5016553;28;20049;-83
2023/12/09 10:02:50;;;;;;;14.70;6.10;;;;;;;4.75;94.69;100038.88;5001086;28;20050;-83
2023/12/09 10:05:21;;;;;;;13.52;6.30;;;;;;;4.82;94.46;100033.72;5000507;28;20054;-82
2023/12/09 10:07:48;;;;;;;14.25;6.25;;;;;;;4.84;94.47;100024.19;4996641;28;20121;-83
2023/12/09 10:10:18;;;;;;;14.63;6.00;;;;;;;4.84;94.27;100029.38;5010970;28;20049;-82
2023/12/09 10:12:45;;;;;;;10.85;5.53;;;;;;;4.87;93.94;100018.13;4987805;28;20105;-83
2023/12/09 10:15:12;;;;;;;13.55;6.18;;;;;;;4.88;93.82;100005.13;4988910;28;20054;-80
2023/12/09 10:17:39;;;;;;;16.17;6.47;;;;;;;4.94;93.71;99998.19;4996965;28;20050;-82
2023/12/09 10:20:08;;;;;;;16.98;6.70;;;;;;;5.03;93.62;99998.22;4981402;28;20046;-82
2023/12/09 10:22:35;;;;;;;14.25;5.55;;;;;;;5.09;93.45;99995.59;5000140;28;20060;-83
2023/12/09 10:25:02;;;;;;;13.82;6.22;;;;;;;5.05;93.32;99992.16;4995687;28;20056;-83
2023/12/09 10:27:29;;;;;;;15.50;6.00;;;;;;;5.05;92.89;99993.84;5000312;28;20054;-83
2023/12/09 10:29:56;;;;;;;13.23;6.35;;;;;;;5.09;92.92;99987.78;4976855;28;20116;-83
2023/12/09 10:32:25;;;;;;;15.45;6.03;;;;;;;5.05;92.86;99986.06;5000174;28;20104;-83
2023/12/09 10:34:52;;;;;;;12.63;5.60;;;;;;;5.09;92.44;99981.75;4977840;28;20087;-83
2023/12/09 10:37:19;;;;;;;14.55;5.72;;;;;;;5.08;92.42;99973.03;4990747;28;20065;-83
2023/12/09 10:39:47;;;;;;;13.05;5.47;;;;;;;5.12;92.07;99980.00;4983576;28;20061;-83
2023/12/09 10:42:14;;;;;;;13.55;5.35;;;;;;;5.11;92.23;99957.44;4986279;28;20049;-83
2023/12/09 10:44:41;;;;;;;12.65;5.53;;;;;;;5.14;92.49;99949.66;5005035;28;20053;-83
2023/12/09 10:47:09;;;;;;;15.05;5.57;;;;;;;5.15;92.35;99925.34;4984717;28;20046;-82
2023/12/09 10:49:36;;;;;;;11.48;5.47;;;;;;;5.15;92.37;99920.16;4996474;28;20049;-82
2023/12/09 10:52:04;;;;;;;12.80;4.82;;;;;;;5.17;92.62;99912.34;4997131;28;20049;-83
2023/12/09 10:54:31;;;;;;;10.15;5.55;;;;;;;5.19;92.55;99913.22;5013780;28;20508;-83
2023/12/09 10:56:58;;;;;;;10.30;4.75;;;;;;;5.19;92.70;99903.69;4998384;28;20505;-84
2023/12/09 10:59:29;;;;;;;10.35;5.15;;;;;;;5.22;92.73;99889.81;5005946;28;20041;-84
2023/12/09 11:01:56;;;;;;;12.68;5.15;;;;;;;5.21;92.83;99873.34;4994482;28;20046;-84
2023/12/09 11:04:24;;;;;;;14.45;5.65;;;;;;;5.25;92.88;99857.72;5002857;28;20516;-83
2023/12/09 11:06:52;;;;;;;16.33;6.25;;;;;;;5.26;92.95;99854.22;4980255;28;20104;-83
2023/12/09 11:09:19;;;;;;;15.55;5.00;;;;;;;5.32;92.94;99834.28;4990210;28;20049;-84
2023/12/09 11:11:46;;;;;;;11.73;5.13;;;;;;;5.37;92.87;99831.66;5005479;28;20049;-83
2023/12/09 11:14:15;;;;;;;13.15;5.38;;;;;;;5.39;92.87;99829.94;4993106;28;20070;-85
2023/12/09 11:16:43;;;;;;;16.08;5.70;;;;;;;5.43;92.74;99816.03;4997090;28;20056;-83
2023/12/09 11:19:16;;;;;;;15.38;6.03;;;;;;;5.42;92.77;99816.00;4982357;28;20054;-84
2023/12/09 11:21:45;;;;;;;13.48;6.22;;;;;;;5.43;92.82;99818.63;4998650;28;20042;-84
2023/12/09 11:24:14;;;;;;;14.05;6.28;;;;;;;5.49;92.76;99807.31;4993781;28;20057;-82
2023/12/09 11:26:41;;;;;;;14.07;6.13;;;;;;;5.46;92.67;99810.81;5001223;28;20046;-84
2023/12/09 11:29:09;;;;;;;13.60;5.95;;;;;;;5.45;92.55;99811.66;4995960;28;20046;-84